Virner, California
Current Conditions -  °F | °C
As of 9:15 AM on Thursday 27 Nov 2014 (Local Time) from KPVF Reporting Station
Clear Clear  
Wind Chill: 64°   Ceiling: Unl
Heat Index: 64°   Visibility: 10mi
Dew Point: 32°   Wind: 0mph
Humidity: 30%   Direction: NA
Pressure: 30.24"   Gusts: NA
Location:  38.9159°N, 120.725°W
Report Text: KPVF 271715Z AUTO 00000KT 10SM CLR 18/00 A3024 RMK AO1
Loading
Personal Weather Stations






























Interactive Weather Map New forecast layout! Learn more

10-Day Weather Forecast

Advertisements
Track Severe Weather on mobile